Flight Track Log - Related Links

Times and Time Zones

All times are in EDT time to prevent confusion due to time zone crossing. See the JTL393 flight status page for this flight to view local times or setup timezone preferences in your user account.

Time Position Orientation Groundspeed Altitude Reporting Facility
EDT Latitude Longitude Course Direction KTS MPH feet Rate Location/Type
Sat 05:54:50 PM 41.8167 -87.7833 265° West 205 236 2,600  Level Chicago TRACON
Sat 05:55:50 PM 41.7833 -87.8500 236° Southwest 235 270 3,000 650 Climbing Chicago TRACON
Sat 05:56:50 PM 41.7667 -87.9333 255° West 229 264 3,900 609 Climbing Chicago TRACON
Sat 05:58:08 PM 41.7386 -88.0264 248° West 242 278 4,400 845 Climbing Chicago Center
Sat 05:59:12 PM 41.7403 -88.1475 271° West 279 321 5,900 714 Climbing Chicago Center
Sat 06:00:00 PM 41.7347 -88.4806 265° West  Level FlightAware Approximate
Sat 06:00:14 PM 41.7581 -88.2464 284° West 277 319 5,900  Level Chicago Center
Sat 06:01:16 PM 41.7750 -88.3444 283° West 276 318 5,900  Level Chicago Center
Sat 06:02:17 PM 41.7931 -88.4419 284° West 275 316 5,900 146 Level Chicago Center
Sat 06:03:19 PM 41.8094 -88.5611 280° West 275 316 6,200 1,403 Climbing Chicago Center
Sat 06:04:21 PM 41.8047 -88.6664 267° West 285 328 8,800 2,585 Climbing Chicago Center
Sat 06:05:22 PM 41.8011 -88.7714 267° West 284 327 11,500 2,049 Climbing Chicago Center
Sat 06:06:24 PM 41.7939 -88.8847 265° West 302 348 13,000 1,016 Climbing Chicago Center
Sat 06:07:26 PM 41.7997 -89.0067 274° West 329 379 13,600 726 Climbing Chicago Center
Sat 06:08:28 PM 41.8069 -89.1294 275° West 333 383 14,500 1,512 Climbing Chicago Center
Sat 06:09:29 PM 41.8192 -89.2797 276° West 340 391 16,700 1,854 Climbing Chicago Center
Sat 06:10:31 PM 41.8347 -89.3983 280° West 327 376 18,300 1,548 Climbing Chicago Center
Sat 06:11:33 PM 41.8344 -89.5181 270° West 327 376 19,900 1,742 Climbing Chicago Center
Sat 06:12:35 PM 41.8239 -89.6336 263° West 318 366 21,900 2,000 Climbing Chicago Center
Sat 06:13:36 PM 41.8142 -89.7439 263° West 306 352 24,000 1,902 Climbing Chicago Center
Sat 06:14:38 PM 41.8103 -89.8719 268° West 291 335 25,800 1,403 Climbing Chicago Center
Sat 06:15:40 PM 41.8081 -89.9686 268° West 294 338 26,900 1,113 Climbing Chicago Center
Sat 06:16:42 PM 41.8053 -90.0842 268° West 309 356 28,100 1,306 Climbing Chicago Center
Sat 06:17:44 PM 41.7997 -90.2267 267° West 322 371 29,600 1,415 Climbing Chicago Center
Sat 06:18:45 PM 41.7942 -90.3486 267° West 331 381 31,000 1,366 Climbing Chicago Center
Sat 06:19:47 PM 41.7900 -90.4644 267° West 318 366 32,400 1,210 Climbing Chicago Center
Sat 06:20:49 PM 41.7847 -90.5753 266° West 307 353 33,500 774 Climbing Chicago Center
Sat 06:21:51 PM 41.7797 -90.6867 267° West 302 348 34,000 242 Climbing Chicago Center
Sat 06:22:53 PM 41.7747 -90.8069 267° West 317 365 34,000 -98 Level Chicago Center
Sat 06:23:54 PM 41.7686 -90.9631 267° West 348 400 33,800 -341 Descending Chicago Center
Sat 06:24:56 PM 41.7617 -91.0992 266° West 364 419 33,300 -677 Descending Chicago Center
Sat 06:25:58 PM 41.7556 -91.2425 267° West 381 438 32,400 -629 Descending Chicago Center
Sat 06:27:00 PM 41.7494 -91.3867 267° West 390 449 32,000 -195 Descending Chicago Center
Sat 06:28:01 PM 41.7433 -91.5264 267° West 381 438 32,000  Level Chicago Center
Sat 06:29:03 PM 41.7353 -91.6658 266° West 378 435 32,000  Level Chicago Center
Sat 06:30:05 PM 41.7278 -91.8331 267° West 376 433 32,000  Level Chicago Center
Sat 06:31:07 PM 41.7194 -91.9733 265° West 380 437 32,000  Level Chicago Center
Sat 06:32:08 PM 41.7133 -92.1117 267° West 377 434 32,000  Level Chicago Center
Sat 06:33:10 PM 41.7056 -92.2511 266° West 378 435 32,000  Level Chicago Center
Sat 06:34:12 PM 41.6981 -92.3925 266° West 382 440 32,000  Level Chicago Center
Sat 06:35:14 PM 41.6894 -92.5333 265° West 382 440 32,000  Level Chicago Center
Sat 06:36:15 PM 41.6792 -92.6989 265° West 377 434 32,000  Level Chicago Center
Sat 06:37:17 PM 41.6706 -92.8494 266° West 383 441 32,000  Level Chicago Center
Sat 06:38:19 PM 41.6636 -92.9889 266° West 380 437 32,000 -97 Level Chicago Center
Sat 06:39:21 PM 41.6550 -93.1286 265° West 380 437 31,800 -537 Descending Chicago Center
Sat 06:40:22 PM 41.6464 -93.2628 265° West 370 426 30,900 -878 Descending Chicago Center
Sat 06:41:24 PM 41.6378 -93.3964 265° West 365 420 30,000 -889 Descending Chicago Center
Sat 06:42:37 PM 41.6264 -93.5583 265° West 367 422 28,900 -985 Descending Minneapolis Center
Sat 06:43:38 PM 41.6172 -93.7239 266° West 374 430 27,800 -976 Descending Minneapolis Center
Sat 06:44:40 PM 41.6069 -93.8694 265° West 391 450 26,900 -794 Descending Minneapolis Center
Sat 06:45:54 PM 41.5961 -94.0169 264° West 401 461 26,000 -971 Descending Minneapolis Center
Sat 06:46:56 PM 41.5844 -94.1967 265° West 408 470 24,700 -1,645 Descending Minneapolis Center
Sat 06:47:58 PM 41.5736 -94.3411 264° West 352 405 22,600 -1,839 Descending Minneapolis Center
Sat 06:49:00 PM 41.5650 -94.4531 264° West 309 356 20,900 -1,403 Descending Minneapolis Center
Sat 06:50:02 PM 41.5564 -94.5536 264° West 276 318 19,700 -1,161 Descending Minneapolis Center
Sat 06:51:04 PM 41.5497 -94.6500 265° West 262 302 18,500 -1,258 Descending Minneapolis Center
Sat 06:52:06 PM 41.5397 -94.7797 264° West 291 335 17,100 -1,220 Descending Minneapolis Center
Sat 06:53:07 PM 41.5289 -94.9006 263° West 321 369 16,000 -928 Descending Minneapolis Center
Sat 06:53:43 PM 41.5347 -94.9808 276° West 336 387 15,600 -1,113 Descending Minneapolis Center
Sat 06:54:44 PM 41.5236 -95.1131 264° West 334 384 14,200 -1,512 Descending Minneapolis Center
Sat 06:55:50 PM 41.5008 -95.2331 256° West 310 357 12,400 -1,606 Descending Minneapolis Center
Sat 06:56:51 PM 41.4683 -95.3372 247° West 309 356 10,800 -1,641 Descending Minneapolis Center
Sat 06:57:58 PM 41.4500 -95.4619 259° West 285 328 8,900 -1,654 Descending Minneapolis Center
Sat 06:58:58 PM 41.4422 -95.5631 264° West 272 313 7,300 -1,596 Descending Minneapolis Center
Sat 06:59:47 PM 41.4369 -95.6361 265° West 266 306 6,000 -1,590 Descending Minneapolis Center
Sat 07:00:21 PM 41.4308 -95.6833 260° West 275 316 5,100 -1,438 Descending Minneapolis Center
Sat 07:01:23 PM 41.4183 -95.7722 259° West 259 298 3,700 -1,016 Descending Minneapolis Center
Sat 07:02:25 PM 41.3953 -95.8506 249° West 241 277 3,000 -796 Descending Minneapolis Center
Sat 07:03:01 PM 41.3706 -95.8969 235° Southwest 184 212 2,400 -857 Descending Minneapolis Center
Sat 07:03:56 PM 41.3369 -95.9231 210° Southwest 141 162 1,700 -682 Descending Minneapolis Center
Sat 07:04:29 PM 41.3250 -95.9103 141° Southeast 171 197 1,400 -442 Descending Minneapolis Center
Sat 07:05:31 PM 41.3008 -95.8878 145° Southeast 130 150 1,000 -387 Descending Minneapolis Center

Login

Don't have an account? Register now (free) for customized features, flight alerts, and more!